createdAt,value
2022-12-28T00:01:52.108Z,-1.31
2022-12-28T00:04:23.421Z,-1.35
2022-12-28T00:06:53.574Z,-1.34
2022-12-28T00:09:25.086Z,-1.38
2022-12-28T00:11:56.000Z,-1.43
2022-12-28T00:14:30.005Z,-1.46
2022-12-28T00:17:00.996Z,-1.49
2022-12-28T00:19:32.459Z,-1.47
2022-12-28T00:22:02.620Z,-1.46
2022-12-28T00:24:35.238Z,-1.47
2022-12-28T00:27:05.669Z,-1.48
2022-12-28T00:29:39.768Z,-1.45
2022-12-28T00:32:11.062Z,-1.46
2022-12-28T00:34:41.937Z,-1.44
2022-12-28T00:37:13.416Z,-1.46
2022-12-28T00:39:45.427Z,-1.45
2022-12-28T00:42:19.687Z,-1.47
2022-12-28T00:44:53.500Z,-1.46
2022-12-28T00:47:24.877Z,-1.37
2022-12-28T00:49:55.815Z,-1.30
2022-12-28T00:52:27.042Z,-1.18
2022-12-28T00:54:57.744Z,-1.21
2022-12-28T00:57:29.020Z,-1.28
2022-12-28T01:00:02.679Z,-1.32
2022-12-28T01:02:33.608Z,-1.31
2022-12-28T01:05:05.342Z,-1.33
2022-12-28T01:07:35.825Z,-1.40
2022-12-28T01:10:06.997Z,-1.54
2022-12-28T01:12:39.830Z,-1.58
2022-12-28T01:15:17.086Z,-1.58
2022-12-28T01:17:47.578Z,-1.58
2022-12-28T01:20:18.721Z,-1.66
2022-12-28T01:22:51.560Z,-1.75
2022-12-28T01:25:22.915Z,-1.79
2022-12-28T01:27:53.529Z,-1.82
2022-12-28T01:30:28.000Z,-1.82
2022-12-28T01:32:58.732Z,-1.81
2022-12-28T01:35:29.173Z,-1.83
2022-12-28T01:37:59.827Z,-1.82
2022-12-28T01:40:30.922Z,-1.78
2022-12-28T01:43:02.284Z,-1.83
2022-12-28T01:45:37.018Z,-1.85
2022-12-28T01:48:10.550Z,-1.84
2022-12-28T01:50:41.855Z,-1.87
2022-12-28T01:53:13.024Z,-1.90
2022-12-28T01:55:45.287Z,-1.94
2022-12-28T01:58:26.315Z,-1.91
2022-12-28T02:01:01.782Z,-1.93
2022-12-28T02:03:35.578Z,-1.92
2022-12-28T02:06:10.893Z,-1.93
2022-12-28T02:08:51.594Z,-1.94
2022-12-28T02:11:23.525Z,-1.91
2022-12-28T02:13:56.555Z,-1.85
2022-12-28T02:16:29.851Z,-1.79
2022-12-28T02:19:00.983Z,-1.69
2022-12-28T02:21:44.505Z,-1.68
2022-12-28T02:25:11.643Z,-1.64
2022-12-28T02:27:55.603Z,-1.56
2022-12-28T02:30:38.480Z,-1.37
2022-12-28T02:33:18.040Z,-1.35
2022-12-28T02:36:00.322Z,-1.27
2022-12-28T02:38:37.876Z,-1.34
2022-12-28T02:41:12.879Z,-1.38
2022-12-28T02:43:44.050Z,-1.23
2022-12-28T02:46:35.536Z,-1.23
2022-12-28T02:49:33.476Z,-1.30
2022-12-28T02:52:15.435Z,-1.22
2022-12-28T02:55:25.265Z,-1.12
2022-12-28T02:58:23.475Z,-1.25
2022-12-28T03:01:12.230Z,-1.33
2022-12-28T03:03:55.712Z,-1.35
2022-12-28T03:06:49.403Z,-1.36
2022-12-28T03:09:29.288Z,-1.35
2022-12-28T03:12:06.821Z,-1.40
2022-12-28T03:14:43.945Z,-1.36
2022-12-28T03:17:29.712Z,-1.39
2022-12-28T03:20:23.935Z,-1.42
2022-12-28T03:23:11.121Z,-1.40
2022-12-28T03:25:59.780Z,-1.40
2022-12-28T03:29:00.723Z,-1.43
2022-12-28T03:31:35.022Z,-1.39
2022-12-28T03:34:12.244Z,-1.46
2022-12-28T03:36:55.754Z,-1.51
2022-12-28T03:39:35.129Z,-1.60
2022-12-28T03:42:29.198Z,-1.63
2022-12-28T03:45:06.070Z,-1.68
2022-12-28T03:47:41.251Z,-1.67
2022-12-28T03:50:12.048Z,-1.68
2022-12-28T03:52:46.269Z,-1.79
2022-12-28T03:55:18.549Z,-1.90
2022-12-28T03:57:50.265Z,-1.88
2022-12-28T04:00:25.849Z,-1.96
2022-12-28T04:02:59.326Z,-1.93
2022-12-28T04:05:30.823Z,-1.91
2022-12-28T04:08:09.597Z,-1.94
2022-12-28T04:10:40.790Z,-1.97
2022-12-28T04:13:12.591Z,-2.02
2022-12-28T04:15:59.205Z,-2.01
2022-12-28T04:18:31.613Z,-1.99
2022-12-28T04:21:02.830Z,-2.04
2022-12-28T04:23:38.044Z,-2.08
2022-12-28T04:26:21.177Z,-2.06
2022-12-28T04:28:54.597Z,-2.07
2022-12-28T04:31:44.699Z,-2.05
2022-12-28T04:34:19.009Z,-2.03
2022-12-28T04:36:57.594Z,-2.01
2022-12-28T04:39:54.901Z,-2.04
2022-12-28T04:42:23.814Z,-2.00
2022-12-28T04:44:55.154Z,-1.98
2022-12-28T04:47:25.703Z,-1.89
2022-12-28T04:49:56.593Z,-1.77
2022-12-28T04:52:27.837Z,-1.78
2022-12-28T04:55:01.592Z,-1.88
2022-12-28T04:57:33.136Z,-1.90
2022-12-28T05:00:03.620Z,-1.96
2022-12-28T05:02:37.461Z,-2.02
2022-12-28T05:05:08.161Z,-2.12
2022-12-28T05:07:39.702Z,-2.18
2022-12-28T05:10:13.424Z,-2.19
2022-12-28T05:12:43.814Z,-2.20
2022-12-28T05:15:17.023Z,-2.23
2022-12-28T05:17:47.775Z,-2.26
2022-12-28T05:20:20.716Z,-2.31
2022-12-28T05:22:51.647Z,-2.35
2022-12-28T05:25:25.485Z,-2.38
2022-12-28T05:27:57.683Z,-2.41
2022-12-28T05:30:28.751Z,-2.44
2022-12-28T05:33:01.134Z,-2.47
2022-12-28T05:35:31.216Z,-2.51
2022-12-28T05:38:06.403Z,-2.55
2022-12-28T05:40:39.391Z,-2.57
2022-12-28T05:43:12.380Z,-2.59
2022-12-28T05:45:42.873Z,-2.59
2022-12-28T05:48:14.637Z,-2.66
2022-12-28T05:50:45.549Z,-2.68
2022-12-28T05:53:16.654Z,-2.67
2022-12-28T05:55:50.178Z,-2.67
2022-12-28T05:58:21.486Z,-2.67
2022-12-28T06:00:51.884Z,-2.67
2022-12-28T06:03:22.808Z,-2.71
2022-12-28T06:05:53.840Z,-2.76
2022-12-28T06:08:25.370Z,-2.80
2022-12-28T06:11:01.797Z,-2.80
2022-12-28T06:13:33.852Z,-2.77
2022-12-28T06:16:09.427Z,-2.74
2022-12-28T06:18:41.375Z,-2.78
2022-12-28T06:21:16.653Z,-2.80
2022-12-28T06:23:48.478Z,-2.82
2022-12-28T06:26:24.799Z,-2.82
2022-12-28T06:28:55.851Z,-2.75
2022-12-28T06:31:28.851Z,-2.73
2022-12-28T06:34:02.404Z,-2.73
2022-12-28T06:36:34.603Z,-2.72
2022-12-28T06:39:08.405Z,-2.73
2022-12-28T06:41:42.507Z,-2.71
2022-12-28T06:44:15.636Z,-2.72
2022-12-28T06:46:49.617Z,-2.79
2022-12-28T06:49:21.443Z,-2.75
2022-12-28T06:51:51.803Z,-2.72
2022-12-28T06:54:23.508Z,-2.63
2022-12-28T06:56:56.390Z,-2.53
2022-12-28T06:59:26.752Z,-2.60
2022-12-28T07:01:58.381Z,-2.61
2022-12-28T07:04:28.580Z,-2.62
2022-12-28T07:07:00.549Z,-2.61
2022-12-28T07:09:30.761Z,-2.49
2022-12-28T07:12:04.992Z,-2.43
2022-12-28T07:14:35.808Z,-2.40
2022-12-28T07:17:07.481Z,-2.35
2022-12-28T07:19:37.636Z,-2.34
2022-12-28T07:22:09.057Z,-2.30
2022-12-28T07:24:39.692Z,-2.22
2022-12-28T07:27:13.927Z,-2.14
2022-12-28T07:29:44.867Z,-2.03
2022-12-28T07:32:16.589Z,-2.02
2022-12-28T07:34:47.995Z,-1.91
2022-12-28T07:37:19.189Z,-1.79
2022-12-28T07:39:49.617Z,-1.75
2022-12-28T07:42:23.611Z,-1.62
2022-12-28T07:44:55.198Z,-1.47
2022-12-28T07:47:25.803Z,-1.28
2022-12-28T07:49:57.341Z,-1.04
2022-12-28T07:52:27.790Z,-0.76
2022-12-28T07:54:59.330Z,-0.41
2022-12-28T07:57:37.035Z,-0.38
2022-12-28T08:00:09.608Z,-0.35
2022-12-28T08:02:48.311Z,-0.45
2022-12-28T08:05:18.683Z,-0.47
2022-12-28T08:07:50.328Z,-0.38
2022-12-28T08:10:22.054Z,-0.21
2022-12-28T08:12:55.220Z,0.18
2022-12-28T08:15:28.584Z,0.23
2022-12-28T08:18:00.251Z,0.24
2022-12-28T08:20:30.625Z,0.43
2022-12-28T08:23:02.600Z,0.65
2022-12-28T08:25:33.911Z,0.95
2022-12-28T08:28:07.763Z,1.44
2022-12-28T08:30:43.433Z,1.70
2022-12-28T08:33:13.697Z,1.85
2022-12-28T08:35:46.010Z,2.04
2022-12-28T08:38:16.674Z,2.16
2022-12-28T08:40:54.152Z,2.15
2022-12-28T08:43:31.029Z,2.45
2022-12-28T08:46:02.936Z,2.66
2022-12-28T08:48:34.613Z,2.68
2022-12-28T08:51:07.847Z,2.65
2022-12-28T08:53:40.231Z,2.64
2022-12-28T08:56:13.569Z,2.75
2022-12-28T08:58:49.154Z,2.99
2022-12-28T09:01:22.511Z,2.98
2022-12-28T09:03:56.402Z,2.98
2022-12-28T09:06:33.499Z,3.07
2022-12-28T09:09:07.427Z,3.04
2022-12-28T09:11:38.870Z,3.21
2022-12-28T09:14:22.043Z,3.15
2022-12-28T09:16:55.212Z,3.24
2022-12-28T09:19:26.207Z,3.27
2022-12-28T09:21:57.474Z,3.32
2022-12-28T09:24:28.097Z,3.38
2022-12-28T09:26:59.764Z,3.54
2022-12-28T09:29:33.563Z,3.48
2022-12-28T09:32:04.996Z,3.55
2022-12-28T09:34:37.822Z,3.70
2022-12-28T09:37:10.159Z,3.89
2022-12-28T09:39:43.307Z,4.03
2022-12-28T09:42:21.846Z,4.06
2022-12-28T09:45:05.940Z,4.11
2022-12-28T09:47:41.776Z,4.35
2022-12-28T09:50:30.540Z,4.28
2022-12-28T09:53:27.273Z,4.34
2022-12-28T09:56:03.380Z,4.55
2022-12-28T09:58:42.830Z,4.61
2022-12-28T10:01:24.471Z,4.67
2022-12-28T10:04:00.811Z,4.59
2022-12-28T10:06:37.153Z,4.69
2022-12-28T10:09:15.490Z,4.67
2022-12-28T10:11:46.986Z,4.67
2022-12-28T10:14:22.366Z,4.76
2022-12-28T10:17:02.967Z,4.82
2022-12-28T10:19:34.208Z,4.87
2022-12-28T10:22:06.937Z,5.10
2022-12-28T10:24:42.122Z,5.09
2022-12-28T10:27:20.483Z,4.91
2022-12-28T10:29:52.029Z,4.86
2022-12-28T10:32:25.489Z,4.84
2022-12-28T10:35:01.852Z,4.79
2022-12-28T10:37:35.383Z,4.91
2022-12-28T10:40:09.830Z,5.10
2022-12-28T10:42:43.596Z,5.30
2022-12-28T10:45:22.004Z,5.45
2022-12-28T10:47:57.228Z,5.34
2022-12-28T10:50:49.519Z,5.25
2022-12-28T10:53:22.375Z,5.26
2022-12-28T10:56:04.737Z,5.34
2022-12-28T10:58:36.992Z,5.30
2022-12-28T11:01:10.719Z,5.30
2022-12-28T11:03:47.935Z,5.25
2022-12-28T11:06:26.729Z,5.21
2022-12-28T11:09:08.729Z,5.34
2022-12-28T11:11:40.269Z,5.52
2022-12-28T11:14:18.921Z,5.69
2022-12-28T11:16:51.294Z,5.59
2022-12-28T11:19:26.506Z,5.52
2022-12-28T11:21:56.881Z,5.47
2022-12-28T11:24:34.733Z,5.36
2022-12-28T11:27:09.151Z,5.19
2022-12-28T11:29:41.358Z,5.21
2022-12-28T11:32:21.711Z,5.33
2022-12-28T11:34:58.081Z,5.27
2022-12-28T11:37:32.364Z,5.44
2022-12-28T11:40:03.651Z,5.46
2022-12-28T11:42:57.911Z,5.51
2022-12-28T11:45:55.381Z,5.58
2022-12-28T11:49:00.342Z,5.61
2022-12-28T11:51:36.795Z,5.77
2022-12-28T11:54:28.455Z,5.77
2022-12-28T11:57:04.522Z,5.84
2022-12-28T11:59:36.423Z,5.81
2022-12-28T12:02:43.592Z,5.81
2022-12-28T12:05:44.333Z,5.93
2022-12-28T12:08:45.406Z,5.84
2022-12-28T12:11:33.573Z,5.89
2022-12-28T12:14:05.473Z,5.92
2022-12-28T12:16:50.270Z,5.87
2022-12-28T12:19:26.481Z,5.96
2022-12-28T12:22:04.149Z,5.92
2022-12-28T12:24:45.783Z,5.88
2022-12-28T12:27:20.361Z,5.89
2022-12-28T12:29:56.025Z,5.90
2022-12-28T12:32:36.608Z,5.93
2022-12-28T12:35:10.321Z,5.93
2022-12-28T12:37:48.730Z,5.78
2022-12-28T12:40:58.004Z,5.75
2022-12-28T12:43:52.348Z,5.86
2022-12-28T12:47:06.404Z,5.88
2022-12-28T12:49:52.959Z,5.88
2022-12-28T12:52:39.220Z,5.88
2022-12-28T12:55:28.614Z,5.90
2022-12-28T12:58:11.040Z,5.93
2022-12-28T13:00:52.061Z,5.93
2022-12-28T13:03:36.484Z,5.90
2022-12-28T13:06:09.546Z,5.98
2022-12-28T13:08:44.324Z,5.95
2022-12-28T13:11:15.794Z,6.08
2022-12-28T13:13:52.189Z,6.16
2022-12-28T13:16:26.295Z,6.19
2022-12-28T13:18:59.964Z,6.25
2022-12-28T13:21:35.362Z,6.25
2022-12-28T13:24:05.691Z,6.27
2022-12-28T13:26:37.704Z,6.23
2022-12-28T13:29:20.276Z,6.19
2022-12-28T13:31:52.717Z,6.02
2022-12-28T13:34:26.691Z,5.96
2022-12-28T13:36:59.728Z,5.86
2022-12-28T13:39:38.332Z,5.80
2022-12-28T13:42:18.905Z,5.74
2022-12-28T13:44:57.458Z,5.62
2022-12-28T13:47:32.765Z,5.53
2022-12-28T13:50:08.971Z,5.51
2022-12-28T13:52:43.099Z,5.40
2022-12-28T13:55:18.525Z,5.29
2022-12-28T13:57:58.864Z,5.26
2022-12-28T14:00:35.198Z,5.17
2022-12-28T14:03:11.807Z,5.08
2022-12-28T14:05:47.528Z,4.99
2022-12-28T14:08:19.791Z,5.01
2022-12-28T14:10:51.688Z,4.90
2022-12-28T14:13:25.690Z,4.88
2022-12-28T14:16:01.517Z,4.87
2022-12-28T14:18:33.873Z,4.74
2022-12-28T14:21:07.312Z,4.71
2022-12-28T14:23:40.223Z,4.61
2022-12-28T14:26:15.673Z,4.49
2022-12-28T14:28:51.584Z,4.40
2022-12-28T14:31:29.602Z,4.33
2022-12-28T14:34:04.163Z,4.22
2022-12-28T14:36:45.237Z,4.19
2022-12-28T14:39:28.760Z,4.23
2022-12-28T14:42:01.037Z,4.24
2022-12-28T14:44:35.338Z,4.27
2022-12-28T14:47:39.355Z,4.21
2022-12-28T14:50:20.002Z,4.19
2022-12-28T14:52:52.695Z,4.13
2022-12-28T14:55:34.256Z,4.13
2022-12-28T14:58:09.436Z,4.07
2022-12-28T15:00:41.634Z,4.03
2022-12-28T15:03:24.342Z,4.00
2022-12-28T15:05:56.559Z,4.05
2022-12-28T15:08:29.094Z,4.01
2022-12-28T15:13:45.066Z,4.00
2022-12-28T15:16:17.787Z,3.91
2022-12-28T15:18:54.509Z,3.93
2022-12-28T15:21:26.306Z,3.93
2022-12-28T15:24:00.179Z,3.91
2022-12-28T15:26:30.853Z,3.88
2022-12-28T15:29:06.667Z,3.79
2022-12-28T15:31:40.379Z,3.68
2022-12-28T15:34:14.331Z,3.67
2022-12-28T15:36:46.296Z,3.67
2022-12-28T15:39:18.240Z,3.79
2022-12-28T15:41:51.660Z,3.64
2022-12-28T15:44:24.467Z,3.63
2022-12-28T15:46:55.117Z,3.56
2022-12-28T15:49:28.963Z,3.45
2022-12-28T15:52:00.687Z,3.45
2022-12-28T15:54:34.214Z,3.40
2022-12-28T15:57:05.759Z,3.36
2022-12-28T15:59:36.703Z,3.39
2022-12-28T16:02:08.875Z,3.33
2022-12-28T16:04:43.752Z,3.15
2022-12-28T16:07:14.983Z,3.22
2022-12-28T16:09:51.862Z,3.11
2022-12-28T16:12:22.798Z,3.03
2022-12-28T16:14:56.241Z,3.01
2022-12-28T16:17:27.604Z,2.88
2022-12-28T16:20:03.179Z,2.76
2022-12-28T16:22:35.039Z,2.67
2022-12-28T16:25:06.409Z,2.69
2022-12-28T16:27:43.320Z,2.63
2022-12-28T16:30:15.254Z,2.58
2022-12-28T16:32:46.896Z,2.47
2022-12-28T16:35:24.314Z,2.38
2022-12-28T16:37:55.612Z,2.44
2022-12-28T16:40:25.875Z,2.45
2022-12-28T16:42:56.942Z,2.38
2022-12-28T16:45:28.553Z,2.35
2022-12-28T16:48:00.271Z,2.38
2022-12-28T16:50:36.005Z,2.28
2022-12-28T16:53:08.020Z,2.22
2022-12-28T16:55:45.820Z,2.13
2022-12-28T16:58:17.499Z,2.06
2022-12-28T17:00:49.637Z,2.00
2022-12-28T17:03:20.266Z,2.03
2022-12-28T17:05:56.238Z,2.05
2022-12-28T17:08:32.636Z,2.03
2022-12-28T17:11:05.410Z,2.02
2022-12-28T17:13:36.064Z,2.03
2022-12-28T17:16:09.018Z,2.03
2022-12-28T17:18:41.431Z,2.06
2022-12-28T17:21:16.958Z,1.98
2022-12-28T17:23:48.266Z,2.12
2022-12-28T17:26:19.178Z,2.08
2022-12-28T17:28:50.789Z,2.08
2022-12-28T17:31:24.641Z,1.98
2022-12-28T17:33:58.013Z,2.02
2022-12-28T17:36:33.253Z,1.98
2022-12-28T17:39:40.289Z,2.02
2022-12-28T17:42:17.940Z,1.93
2022-12-28T17:44:50.339Z,2.04
2022-12-28T17:47:24.013Z,2.05
2022-12-28T17:49:56.359Z,2.04
2022-12-28T17:52:31.742Z,2.07
2022-12-28T17:55:03.715Z,2.14
2022-12-28T17:57:38.595Z,2.12
2022-12-28T18:00:11.768Z,2.10
2022-12-28T18:02:48.941Z,2.12
2022-12-28T18:05:22.663Z,2.10
2022-12-28T18:07:58.033Z,2.16
2022-12-28T18:10:39.021Z,2.28
2022-12-28T18:13:13.756Z,2.27
2022-12-28T18:15:47.296Z,2.26
2022-12-28T18:18:22.467Z,2.31
2022-12-28T18:21:00.065Z,2.25
2022-12-28T18:23:34.585Z,2.23
2022-12-28T18:26:10.620Z,2.26
2022-12-28T18:28:41.951Z,2.21
2022-12-28T18:31:13.409Z,2.17
2022-12-28T18:33:44.279Z,2.25
2022-12-28T18:36:18.535Z,2.17
2022-12-28T18:38:56.680Z,2.20
2022-12-28T18:41:33.747Z,2.14
2022-12-28T18:44:06.903Z,2.09
2022-12-28T18:46:48.463Z,2.07
2022-12-28T18:49:22.195Z,2.02
2022-12-28T18:51:53.375Z,1.91
2022-12-28T18:54:27.754Z,1.80
2022-12-28T18:56:59.064Z,1.75
2022-12-28T18:59:30.439Z,1.67
2022-12-28T19:02:06.874Z,1.55
2022-12-28T19:04:39.920Z,1.53
2022-12-28T19:07:10.769Z,1.53
2022-12-28T19:10:11.540Z,1.48
2022-12-28T19:12:45.252Z,1.51
2022-12-28T19:15:16.071Z,1.56
2022-12-28T19:17:47.732Z,1.43
2022-12-28T19:20:19.061Z,1.40
2022-12-28T19:22:50.913Z,1.38
2022-12-28T19:25:24.940Z,1.37
2022-12-28T19:27:56.883Z,1.36
2022-12-28T19:30:35.877Z,1.32
2022-12-28T19:33:08.007Z,1.27
2022-12-28T19:35:39.539Z,1.25
2022-12-28T19:38:10.551Z,1.21
2022-12-28T19:40:44.881Z,1.24
2022-12-28T19:43:15.927Z,1.14
2022-12-28T19:45:48.666Z,1.07
2022-12-28T19:48:22.811Z,1.10
2022-12-28T19:50:57.160Z,1.04
2022-12-28T19:53:30.117Z,0.93
2022-12-28T19:56:07.426Z,0.92
2022-12-28T19:58:40.703Z,0.95
2022-12-28T20:01:15.613Z,0.94
2022-12-28T20:03:48.464Z,0.90
2022-12-28T20:06:23.668Z,0.92
2022-12-28T20:08:57.558Z,0.93
2022-12-28T20:11:30.832Z,0.93
2022-12-28T20:14:10.081Z,0.91
2022-12-28T20:16:40.980Z,0.89
2022-12-28T20:19:14.052Z,0.89
2022-12-28T20:21:46.132Z,0.89
2022-12-28T20:24:21.946Z,0.88
2022-12-28T20:27:01.507Z,0.90
2022-12-28T20:29:32.770Z,0.93
2022-12-28T20:32:04.041Z,0.90
2022-12-28T20:34:35.143Z,0.85
2022-12-28T20:37:06.069Z,0.81
2022-12-28T20:39:37.141Z,0.90
2022-12-28T20:42:23.215Z,0.89
2022-12-28T20:44:57.666Z,0.84
2022-12-28T20:47:28.096Z,0.77
2022-12-28T20:50:00.722Z,0.82
2022-12-28T20:52:33.777Z,0.85
2022-12-28T20:55:05.424Z,0.85
2022-12-28T20:57:39.984Z,0.72
2022-12-28T21:00:13.213Z,0.79
2022-12-28T21:02:45.609Z,0.79
2022-12-28T21:05:16.103Z,0.77
2022-12-28T21:07:47.319Z,0.71
2022-12-28T21:10:18.453Z,0.71
2022-12-28T21:12:52.758Z,0.76
2022-12-28T21:15:24.860Z,0.68
2022-12-28T21:17:58.040Z,0.63
2022-12-28T21:20:35.458Z,0.64
2022-12-28T21:23:11.106Z,0.59
2022-12-28T21:25:43.012Z,0.60
2022-12-28T21:28:16.727Z,0.52
2022-12-28T21:30:57.929Z,0.46
2022-12-28T21:33:29.846Z,0.42
2022-12-28T21:36:02.507Z,0.49
2022-12-28T21:38:34.973Z,0.56
2022-12-28T21:41:08.324Z,0.58
2022-12-28T21:43:44.457Z,0.55
2022-12-28T21:46:17.770Z,0.58
2022-12-28T21:48:48.779Z,0.64
2022-12-28T21:51:33.738Z,0.51
2022-12-28T21:54:07.771Z,0.54
2022-12-28T21:56:39.294Z,0.54
2022-12-28T21:59:13.959Z,0.48
2022-12-28T22:01:58.871Z,0.59
2022-12-28T22:04:44.339Z,0.54
2022-12-28T22:07:19.608Z,0.49
2022-12-28T22:10:11.985Z,0.43
2022-12-28T22:12:46.136Z,0.43
2022-12-28T22:15:36.511Z,0.42
2022-12-28T22:18:12.794Z,0.45
2022-12-28T22:20:54.946Z,0.50
2022-12-28T22:23:34.253Z,0.40
2022-12-28T22:26:07.547Z,0.50
2022-12-28T22:28:39.681Z,0.42
2022-12-28T22:31:13.477Z,0.53
2022-12-28T22:33:45.426Z,0.68
2022-12-28T22:36:18.737Z,0.68
2022-12-28T22:38:49.564Z,0.88
2022-12-28T22:41:24.384Z,0.93
2022-12-28T22:43:57.593Z,0.89
2022-12-28T22:46:30.772Z,0.87
2022-12-28T22:49:02.245Z,0.83
2022-12-28T22:51:34.727Z,0.79
2022-12-28T22:54:09.635Z,0.81
2022-12-28T22:56:41.524Z,0.79
2022-12-28T22:59:15.817Z,0.74
2022-12-28T23:01:51.786Z,0.61
2022-12-28T23:04:26.589Z,0.64
2022-12-28T23:07:03.536Z,0.66
2022-12-28T23:09:36.673Z,0.63
2022-12-28T23:12:12.341Z,0.56
2022-12-28T23:14:55.299Z,0.56
2022-12-28T23:17:36.509Z,0.51
2022-12-28T23:20:21.164Z,0.47
2022-12-28T23:23:04.157Z,0.41
2022-12-28T23:25:50.022Z,0.36
2022-12-28T23:28:21.991Z,0.37
2022-12-28T23:30:56.831Z,0.34
2022-12-28T23:33:33.061Z,0.28
2022-12-28T23:36:05.979Z,0.24
2022-12-28T23:38:42.679Z,0.22
2022-12-28T23:41:25.350Z,0.23
2022-12-28T23:43:57.137Z,0.16
2022-12-28T23:46:28.036Z,0.11
2022-12-28T23:49:08.234Z,0.09
2022-12-28T23:51:39.720Z,0.03
2022-12-28T23:54:11.553Z,0.04
2022-12-28T23:56:45.523Z,0.04
2022-12-28T23:59:16.309Z,-0.05
